Time;durP1;ratioP1;P1;durP2;ratioP2;P2;SDS_P1;SDS_P2;PMS_P1;PMS_P2;Temp;Humidity;BMP_temperature;BMP_pressure;BME280_temperature;BME280_humidity;BME280_pressure;Samples;Min_cycle;Max_cycle;Signal;HPM_P1;HPM_P2
2022/07/28 00:01:08;;;;;;;2.28;1.70;;;;;;;16.12;61.43;98231.66;5021442;28;20070;-84
2022/07/28 00:03:35;;;;;;;4.05;1.80;;;;;;;16.00;60.96;98229.00;5000451;28;20068;-84
2022/07/28 00:06:03;;;;;;;1.95;1.80;;;;;;;15.95;61.29;98230.75;5022595;28;20049;-84
2022/07/28 00:08:30;;;;;;;2.55;1.90;;;;;;;15.91;61.67;98229.59;5028443;28;20038;-88
2022/07/28 00:10:57;;;;;;;2.05;1.30;;;;;;;15.93;61.45;98233.63;5025167;28;20092;-84
2022/07/28 00:13:23;;;;;;;1.50;1.40;;;;;;;15.84;61.94;98223.63;5025886;28;20037;-88
2022/07/28 00:15:50;;;;;;;2.78;1.95;;;;;;;15.86;62.12;98234.78;5025385;28;20041;-89
2022/07/28 00:18:17;;;;;;;1.20;1.20;;;;;;;15.79;62.10;98219.84;5018550;28;20391;-85
2022/07/28 00:20:44;;;;;;;1.75;1.63;;;;;;;15.74;62.03;98225.00;5023226;28;20056;-89
2022/07/28 00:23:11;;;;;;;2.25;1.50;;;;;;;15.78;62.80;98231.44;5023521;28;20042;-84
2022/07/28 00:25:37;;;;;;;2.55;1.63;;;;;;;15.74;62.86;98226.84;5025216;28;20437;-84
2022/07/28 00:28:04;;;;;;;1.40;1.30;;;;;;;15.84;63.08;98229.72;5022321;28;20041;-84
2022/07/28 00:30:31;;;;;;;3.63;1.70;;;;;;;15.73;62.29;98226.03;5020647;28;20053;-84
2022/07/28 00:32:58;;;;;;;2.03;1.80;;;;;;;15.62;62.54;98228.63;5018360;28;20069;-89
2022/07/28 00:35:25;;;;;;;2.35;2.03;;;;;;;15.49;63.03;98227.03;5027330;28;20099;-88
2022/07/28 00:37:58;;;;;;;2.13;1.85;;;;;;;15.41;63.75;98212.31;5018300;28;20077;-84
2022/07/28 00:41:09;;;;;;;2.20;1.70;;;;;;;15.57;63.72;98229.31;5002197;28;20054;-88
2022/07/28 00:43:14;;;;;;;2.00;1.80;;;;;;;15.42;63.85;98215.75;5027038;28;20123;-84
2022/07/28 00:45:41;;;;;;;2.35;1.85;;;;;;;15.41;63.70;98224.69;5015993;28;20064;-84
2022/07/28 00:48:08;;;;;;;3.45;2.03;;;;;;;15.29;64.43;98219.38;5026492;28;20103;-84
2022/07/28 00:50:39;;;;;;;2.75;1.65;;;;;;;15.29;64.74;98222.03;5028778;28;20488;-84
2022/07/28 00:53:06;;;;;;;1.70;1.60;;;;;;;15.39;64.78;98229.41;5033774;28;20045;-89
2022/07/28 00:55:35;;;;;;;2.58;1.98;;;;;;;15.39;64.18;98226.75;5022625;28;20038;-84
2022/07/28 00:58:22;;;;;;;2.10;1.90;;;;;;;15.32;64.46;98221.59;5008032;28;20096;-89
2022/07/28 01:00:49;;;;;;;1.50;1.40;;;;;;;15.29;65.09;98214.09;5010999;28;20045;-88
2022/07/28 01:03:18;;;;;;;2.53;1.73;;;;;;;15.31;64.46;98229.75;5033419;28;20037;-88
2022/07/28 01:06:01;;;;;;;2.30;1.80;;;;;;;15.19;64.20;98214.66;5030355;28;20065;-84
2022/07/28 01:08:49;;;;;;;2.00;1.80;;;;;;;15.22;65.43;98226.59;5031258;28;20065;-84
2022/07/28 01:11:30;;;;;;;1.63;1.52;;;;;;;15.24;65.42;98214.00;5029563;28;20025;-84
2022/07/28 01:14:22;;;;;;;1.80;1.70;;;;;;;15.26;64.50;98211.91;5025060;28;20476;-89
2022/07/28 01:17:02;;;;;;;1.70;1.50;;;;;;;15.29;65.26;98211.44;5030580;28;20453;-88
2022/07/28 01:19:35;;;;;;;1.40;1.30;;;;;;;15.40;64.51;98220.44;5018507;28;20037;-87
2022/07/28 01:22:08;;;;;;;1.95;1.52;;;;;;;15.40;64.25;98217.78;5022805;28;20046;-88
2022/07/28 01:24:49;;;;;;;2.08;1.88;;;;;;;15.44;64.20;98216.31;5009284;28;20053;-84
2022/07/28 01:27:40;;;;;;;2.25;1.67;;;;;;;15.45;64.49;98221.38;5025402;28;20100;-89
2022/07/28 01:30:45;;;;;;;1.42;1.30;;;;;;;15.52;64.28;98215.97;5017618;28;20038;-87
2022/07/28 01:33:32;;;;;;;2.30;1.73;;;;;;;15.43;64.08;98217.34;5014215;28;20112;-85
2022/07/28 01:36:09;;;;;;;6.25;1.77;;;;;;;15.27;63.76;98209.03;5022894;28;20042;-88
2022/07/28 01:38:38;;;;;;;1.88;1.77;;;;;;;15.26;64.21;98202.16;5025621;28;20046;-84
2022/07/28 01:41:16;;;;;;;1.40;1.30;;;;;;;15.37;64.91;98215.63;5028544;28;20041;-87
2022/07/28 01:43:50;;;;;;;1.10;1.10;;;;;;;15.44;64.79;98217.13;5027360;28;20037;-89
2022/07/28 01:46:20;;;;;;;1.45;1.30;;;;;;;15.51;64.47;98212.53;5026881;28;20045;-87
2022/07/28 01:48:50;;;;;;;1.77;1.67;;;;;;;15.55;63.34;98215.53;5020776;28;20041;-89
2022/07/28 01:51:20;;;;;;;2.53;1.75;;;;;;;15.38;64.41;98204.03;5023903;28;20045;-89
2022/07/28 01:53:50;;;;;;;3.17;2.00;;;;;;;15.30;64.51;98217.56;5021573;28;20069;-89
2022/07/28 01:56:21;;;;;;;2.35;1.65;;;;;;;15.27;64.82;98203.75;5024075;28;20046;-84
2022/07/28 01:58:52;;;;;;;1.77;1.50;;;;;;;15.27;65.11;98193.19;5018784;28;20338;-89
2022/07/28 02:01:22;;;;;;;1.60;1.50;;;;;;;15.39;64.08;98200.34;5022059;28;20046;-89
2022/07/28 02:03:53;;;;;;;3.22;1.77;;;;;;;15.24;64.76;98193.66;5020656;28;20516;-88
2022/07/28 02:06:22;;;;;;;2.55;2.10;;;;;;;15.17;64.66;98192.13;5022021;28;20050;-84
2022/07/28 02:08:53;;;;;;;2.97;2.17;;;;;;;15.11;64.46;98182.47;5027783;28;20033;-88
2022/07/28 02:11:40;;;;;;;2.83;2.20;;;;;;;15.04;64.92;98177.28;5034300;28;20025;-84
2022/07/28 02:14:15;;;;;;;2.40;1.60;;;;;;;15.19;65.12;98180.31;5024543;28;20045;-84
2022/07/28 02:16:56;;;;;;;3.22;1.88;;;;;;;15.16;65.23;98191.31;5022454;28;20052;-89
2022/07/28 02:19:25;;;;;;;2.92;2.10;;;;;;;15.06;64.92;98183.16;5020767;28;20042;-84
2022/07/28 02:21:55;;;;;;;2.85;2.20;;;;;;;14.95;65.12;98183.94;5018411;28;20096;-89
2022/07/28 02:24:28;;;;;;;2.42;2.22;;;;;;;14.96;65.01;98182.91;5026134;28;20042;-88
2022/07/28 02:27:06;;;;;;;2.30;2.10;;;;;;;14.93;65.41;98175.41;5022906;28;20038;-89
2022/07/28 02:29:46;;;;;;;2.85;2.20;;;;;;;14.89;65.15;98180.34;5015818;28;20072;-84
2022/07/28 02:32:44;;;;;;;2.33;2.13;;;;;;;15.03;65.91;98175.69;5006897;28;20107;-89
2022/07/28 02:35:32;;;;;;;1.60;1.50;;;;;;;15.14;65.37;98180.19;5018192;28;20045;-90
2022/07/28 02:38:12;;;;;;;;;;;;;;;15.09;65.01;98180.06;5019226;28;20520;-89
2022/07/28 02:40:44;;;;;;;2.15;1.75;;;;;;;15.03;64.59;98170.41;5019623;28;19992;-90
2022/07/28 02:43:15;;;;;;;1.70;1.60;;;;;;;15.12;65.76;98176.97;5023805;28;20041;-84
2022/07/28 02:45:50;;;;;;;2.50;2.28;;;;;;;15.05;64.98;98170.16;5024306;28;20041;-85
2022/07/28 02:48:26;;;;;;;2.03;1.83;;;;;;;14.96;65.54;98174.97;5023917;28;20033;-84
2022/07/28 02:51:00;;;;;;;2.30;2.10;;;;;;;14.82;65.51;98168.28;5013525;28;20514;-84
2022/07/28 02:53:29;;;;;;;2.30;2.08;;;;;;;14.81;66.24;98177.22;5014104;28;20070;-89
2022/07/28 02:55:57;;;;;;;2.30;2.10;;;;;;;14.68;65.70;98157.88;5017439;28;20045;-89
2022/07/28 02:58:27;;;;;;;2.50;2.30;;;;;;;14.68;66.36;98159.72;5018366;28;20077;-90
2022/07/28 03:00:58;;;;;;;1.80;1.70;;;;;;;14.68;66.23;98163.16;5013498;28;20045;-90
2022/07/28 03:03:26;;;;;;;1.83;1.73;;;;;;;14.72;66.73;98161.69;5022221;28;20137;-90
2022/07/28 03:05:54;;;;;;;2.70;2.50;;;;;;;14.59;66.42;98167.16;5020980;28;20041;-84
2022/07/28 03:08:21;;;;;;;2.38;2.15;;;;;;;14.52;66.53;98174.38;5021680;28;20041;-85
2022/07/28 03:10:48;;;;;;;2.80;2.60;;;;;;;14.47;67.10;98166.31;5000243;28;20054;-84
2022/07/28 03:13:15;;;;;;;3.05;2.50;;;;;;;14.43;67.24;98165.09;5021045;28;20045;-85
2022/07/28 03:15:42;;;;;;;3.03;2.20;;;;;;;14.45;67.40;98168.31;5019913;28;20052;-84
2022/07/28 03:18:09;;;;;;;3.05;2.55;;;;;;;14.45;67.22;98168.31;5016509;28;20053;-84
2022/07/28 03:20:35;;;;;;;3.63;2.20;;;;;;;14.46;67.82;98167.31;5010996;28;20041;-85
2022/07/28 03:23:03;;;;;;;2.17;1.90;;;;;;;14.32;67.68;98152.66;5010236;28;20097;-85
2022/07/28 03:25:50;;;;;;;2.47;2.28;;;;;;;14.43;67.88;98168.53;5009975;28;20042;-83
2022/07/28 03:28:20;;;;;;;3.15;2.30;;;;;;;14.36;67.47;98170.47;5024966;28;20053;-84
2022/07/28 03:30:55;;;;;;;2.20;2.10;;;;;;;14.39;67.98;98182.41;5013396;28;20382;-84
2022/07/28 03:33:23;;;;;;;2.60;2.40;;;;;;;14.25;67.86;98168.56;5017712;28;20444;-84
2022/07/28 03:35:55;;;;;;;3.35;3.03;;;;;;;14.20;67.88;98171.84;5020660;28;20429;-84
2022/07/28 03:38:29;;;;;;;3.28;2.83;;;;;;;14.16;67.83;98170.72;5010363;28;20462;-84
2022/07/28 03:40:57;;;;;;;3.30;2.45;;;;;;;14.20;68.01;98181.59;5017068;28;20053;-84
2022/07/28 03:43:27;;;;;;;2.97;2.20;;;;;;;14.23;68.11;98181.19;5017702;28;20033;-84
2022/07/28 03:45:54;;;;;;;2.47;2.28;;;;;;;14.16;68.16;98181.25;5014409;28;20046;-84
2022/07/28 03:48:27;;;;;;;2.42;2.22;;;;;;;14.25;68.63;98189.66;5019419;28;20493;-84
2022/07/28 03:50:54;;;;;;;2.85;2.25;;;;;;;14.28;69.07;98188.44;5018040;28;20448;-84
2022/07/28 03:53:27;;;;;;;4.85;2.60;;;;;;;14.24;68.67;98181.97;5019804;28;20628;-84
2022/07/28 03:55:54;;;;;;;4.93;2.70;;;;;;;14.15;69.12;98174.38;5022201;28;20045;-84
2022/07/28 03:58:25;;;;;;;2.53;1.98;;;;;;;14.27;69.49;98176.25;5018067;28;20140;-84
2022/07/28 04:00:56;;;;;;;2.17;2.08;;;;;;;14.23;69.34;98185.66;5020029;28;20145;-85
2022/07/28 04:03:24;;;;;;;2.97;2.47;;;;;;;14.15;69.27;98179.66;5015718;28;20045;-84
2022/07/28 04:06:13;;;;;;;2.50;2.30;;;;;;;14.09;69.68;98180.53;5017216;28;20615;-85
2022/07/28 04:08:42;;;;;;;3.78;2.33;;;;;;;14.07;69.73;98177.28;5016757;28;20504;-85
2022/07/28 04:11:09;;;;;;;2.35;1.90;;;;;;;14.11;69.95;98182.94;5017704;28;20041;-84
2022/07/28 04:13:36;;;;;;;2.00;1.90;;;;;;;14.14;70.65;98167.47;5017594;28;20088;-84
2022/07/28 04:16:05;;;;;;;2.13;1.90;;;;;;;14.26;70.78;98179.91;5009206;28;20504;-83
2022/07/28 04:18:33;;;;;;;2.10;1.90;;;;;;;14.31;70.45;98182.72;5017082;28;20068;-84
2022/07/28 04:21:00;;;;;;;3.28;2.20;;;;;;;14.28;70.72;98188.44;5017221;28;20041;-84
2022/07/28 04:23:27;;;;;;;2.30;2.15;;;;;;;14.33;71.49;98199.91;5023100;28;20404;-84
2022/07/28 04:25:54;;;;;;;2.13;1.83;;;;;;;14.31;72.47;98194.06;5020430;28;20120;-84
2022/07/28 04:28:21;;;;;;;2.22;2.03;;;;;;;14.28;71.08;98188.44;5017227;28;20045;-84
2022/07/28 04:30:47;;;;;;;2.05;1.90;;;;;;;14.27;72.05;98176.25;5019137;28;20586;-85
2022/07/28 04:33:14;;;;;;;2.30;2.10;;;;;;;14.40;72.27;98189.31;5016288;28;20399;-84
2022/07/28 04:35:41;;;;;;;2.20;2.00;;;;;;;14.37;71.70;98177.34;5018882;28;20053;-84
2022/07/28 04:38:09;;;;;;;2.03;1.90;;;;;;;14.32;71.23;98179.03;5013880;28;20049;-84
2022/07/28 04:40:36;;;;;;;2.35;2.15;;;;;;;14.36;70.68;98182.84;5016519;28;20049;-84
2022/07/28 04:43:03;;;;;;;2.50;2.20;;;;;;;14.29;71.38;98179.50;5018870;28;20398;-84
2022/07/28 04:45:30;;;;;;;5.68;2.22;;;;;;;14.37;71.52;98171.28;5021435;28;20096;-84
2022/07/28 04:47:57;;;;;;;3.28;2.50;;;;;;;14.32;70.52;98177.19;5021483;28;20413;-84
2022/07/28 04:50:24;;;;;;;2.40;2.20;;;;;;;14.41;70.66;98188.28;5009321;28;20050;-84
2022/07/28 04:52:51;;;;;;;2.08;1.92;;;;;;;14.34;71.09;98182.28;5014047;28;20045;-85
2022/07/28 04:55:17;;;;;;;2.80;1.67;;;;;;;14.48;70.65;98189.03;5015418;28;20147;-84
2022/07/28 04:57:45;;;;;;;3.00;2.30;;;;;;;14.40;69.91;98190.13;5017918;28;20064;-85
2022/07/28 05:00:13;;;;;;;3.35;2.60;;;;;;;14.48;69.33;98193.50;5017126;28;20050;-84
2022/07/28 05:02:43;;;;;;;2.40;2.25;;;;;;;14.51;69.65;98193.84;5018408;28;20500;-85
2022/07/28 05:05:11;;;;;;;2.92;2.05;;;;;;;14.57;69.39;98190.31;5021189;28;20508;-86
2022/07/28 05:07:40;;;;;;;3.67;2.28;;;;;;;14.60;69.92;98187.25;5022670;28;20073;-85
2022/07/28 05:10:10;;;;;;;4.00;2.35;;;;;;;14.66;69.92;98185.56;5016634;28;20107;-84
2022/07/28 05:12:38;;;;;;;3.75;2.63;;;;;;;14.60;70.08;98178.53;5019808;28;20379;-84
2022/07/28 05:15:06;;;;;;;2.45;2.35;;;;;;;14.60;70.42;98176.69;5017072;28;20077;-84
2022/07/28 05:17:33;;;;;;;3.35;2.13;;;;;;;14.66;69.99;98181.06;5015018;28;20046;-85
2022/07/28 05:20:00;;;;;;;2.78;2.25;;;;;;;14.73;69.79;98180.97;5021371;28;20489;-86
2022/07/28 05:22:56;;;;;;;4.85;2.90;;;;;;;14.63;70.14;98164.88;5016545;28;20038;-84
2022/07/28 05:25:24;;;;;;;2.20;2.00;;;;;;;14.80;70.64;98176.41;5018952;28;20042;-84
2022/07/28 05:27:53;;;;;;;2.67;2.33;;;;;;;14.83;70.05;98173.34;5016288;28;20046;-85
2022/07/28 05:30:21;;;;;;;2.45;2.13;;;;;;;15.01;69.12;98188.31;5021757;28;20088;-86
2022/07/28 05:32:48;;;;;;;2.00;1.90;;;;;;;15.13;70.97;98181.22;5023408;28;20049;-84
2022/07/28 05:35:15;;;;;;;2.80;2.50;;;;;;;15.11;68.41;98180.63;5019001;28;20511;-84
2022/07/28 05:37:42;;;;;;;2.40;2.20;;;;;;;15.36;69.08;98184.94;5022584;28;20470;-83
2022/07/28 05:40:13;;;;;;;3.00;2.20;;;;;;;15.47;67.49;98187.59;5019836;28;20055;-85
2022/07/28 05:42:46;;;;;;;2.97;2.00;;;;;;;15.54;68.53;98182.22;5020451;28;20033;-84
2022/07/28 05:45:13;;;;;;;3.90;2.10;;;;;;;15.76;68.67;98183.25;5020003;28;20054;-84
2022/07/28 05:47:48;;;;;;;2.33;2.13;;;;;;;16.02;68.38;98189.13;5019140;28;20581;-85
2022/07/28 05:50:18;;;;;;;2.05;1.85;;;;;;;16.28;66.31;98193.09;5018992;28;20046;-84
2022/07/28 05:52:46;;;;;;;1.67;1.58;;;;;;;16.50;68.35;98177.41;5022487;28;20452;-84
2022/07/28 05:55:16;;;;;;;2.25;1.92;;;;;;;16.64;66.30;98184.00;5018195;28;20465;-84
2022/07/28 05:57:44;;;;;;;1.90;1.70;;;;;;;16.65;67.13;98182.97;5019506;28;20117;-84
2022/07/28 06:00:17;;;;;;;2.38;1.80;;;;;;;16.68;68.20;98181.69;5022544;28;20069;-84
2022/07/28 06:02:47;;;;;;;3.10;2.15;;;;;;;16.79;65.83;98189.63;5019587;28;20042;-84
2022/07/28 06:05:17;;;;;;;3.35;1.80;;;;;;;16.68;66.23;98190.44;5020134;28;20046;-84
2022/07/28 06:07:46;;;;;;;4.72;2.38;;;;;;;16.55;66.49;98169.53;5011312;28;20088;-84
2022/07/28 06:10:18;;;;;;;2.13;1.92;;;;;;;16.64;67.63;98186.66;5013198;28;20228;-84
2022/07/28 06:12:49;;;;;;;3.20;1.77;;;;;;;16.67;67.24;98186.16;5024046;28;20096;-84
2022/07/28 06:15:22;;;;;;;;;;;;;;;16.93;68.77;98184.03;5022207;28;20095;-84
2022/07/28 06:17:52;;;;;;;1.42;1.33;;;;;;;17.15;67.95;98190.22;5020068;28;19943;-84
2022/07/28 06:20:24;;;;;;;1.10;1.10;;;;;;;17.27;68.06;98177.75;5018259;28;20102;-84
2022/07/28 06:22:53;;;;;;;2.03;1.35;;;;;;;17.33;67.86;98182.09;5016445;28;20048;-84
2022/07/28 06:25:24;;;;;;;1.70;1.60;;;;;;;17.37;64.97;98190.34;5022229;28;20042;-84
2022/07/28 06:27:54;;;;;;;1.65;1.10;;;;;;;17.66;67.78;98193.72;5017777;28;20045;-84
2022/07/28 06:30:22;;;;;;;2.25;1.65;;;;;;;17.79;64.09;98187.28;5017247;28;20045;-84
2022/07/28 06:32:49;;;;;;;1.50;1.30;;;;;;;17.82;64.92;98186.81;5019500;28;20049;-84
2022/07/28 06:35:17;;;;;;;1.60;1.50;;;;;;;17.83;64.37;98189.22;5005331;28;20259;-84
2022/07/28 06:37:50;;;;;;;2.28;1.40;;;;;;;17.91;64.60;98191.44;5025594;28;20509;-84
2022/07/28 06:40:19;;;;;;;1.13;1.02;;;;;;;18.11;65.52;98195.41;5023164;28;20045;-84
2022/07/28 06:42:46;;;;;;;1.52;1.25;;;;;;;18.22;64.92;98191.84;5015101;28;20045;-84
2022/07/28 06:45:14;;;;;;;1.02;1.00;;;;;;;18.41;63.07;98193.16;5023984;28;20065;-82
2022/07/28 06:47:51;;;;;;;1.00;1.00;;;;;;;18.69;64.49;98196.69;5021857;28;20455;-82
2022/07/28 06:50:20;;;;;;;2.45;1.50;;;;;;;18.99;57.95;98188.22;5016213;28;20050;-85
2022/07/28 06:52:55;;;;;;;1.88;1.70;;;;;;;19.47;58.81;98186.50;5019860;28;20126;-84
2022/07/28 06:55:22;;;;;;;1.48;1.33;;;;;;;19.74;57.31;98184.59;5021222;28;20041;-86
2022/07/28 06:57:50;;;;;;;2.00;1.80;;;;;;;20.04;56.31;98183.97;5014390;28;20045;-85
2022/07/28 07:00:17;;;;;;;2.33;1.73;;;;;;;20.35;54.96;98200.09;5021858;28;20130;-88
2022/07/28 07:02:44;;;;;;;1.92;1.40;;;;;;;20.50;55.26;98205.50;5016657;28;20041;-84
2022/07/28 07:05:11;;;;;;;2.03;1.45;;;;;;;20.70;53.26;98198.66;5023699;28;20061;-86
2022/07/28 07:07:39;;;;;;;1.80;1.50;;;;;;;20.83;51.86;98193.63;5015857;28;20095;-88
2022/07/28 07:10:10;;;;;;;1.83;1.65;;;;;;;20.77;51.17;98200.00;5021017;28;20050;-86
2022/07/28 07:12:37;;;;;;;1.40;1.20;;;;;;;20.94;50.92;98194.44;5019790;28;20042;-88
2022/07/28 07:15:06;;;;;;;1.80;1.70;;;;;;;20.73;50.57;98174.13;5022573;28;20042;-88
2022/07/28 07:17:36;;;;;;;1.70;1.42;;;;;;;20.98;50.76;98176.84;5026788;28;20037;-86
2022/07/28 07:20:06;;;;;;;2.10;1.40;;;;;;;21.26;50.44;98185.41;5017929;28;20042;-85
2022/07/28 07:22:33;;;;;;;3.38;1.73;;;;;;;21.46;50.03;98188.09;5021968;28;20288;-88
2022/07/28 07:25:09;;;;;;;3.28;1.40;;;;;;;21.64;49.96;98192.88;5021490;28;20036;-88
2022/07/28 07:27:37;;;;;;;2.65;1.45;;;;;;;21.67;49.92;98183.56;5020461;28;20052;-88
2022/07/28 07:30:06;;;;;;;4.38;1.83;;;;;;;21.67;49.81;98177.41;4997218;28;20125;-87
2022/07/28 07:32:35;;;;;;;2.50;1.60;;;;;;;21.64;48.11;98181.41;5018163;28;20378;-86
2022/07/28 07:35:04;;;;;;;2.30;1.83;;;;;;;21.62;48.01;98168.34;5018796;28;20041;-87
2022/07/28 07:37:31;;;;;;;1.77;1.40;;;;;;;21.87;48.77;98169.34;5021403;28;20041;-89
2022/07/28 07:40:05;;;;;;;2.42;1.50;;;;;;;22.04;47.67;98185.88;5018212;28;20137;-88
2022/07/28 07:42:33;;;;;;;2.85;1.52;;;;;;;22.15;48.47;98176.78;5022299;28;20382;-85
2022/07/28 07:45:00;;;;;;;1.73;1.42;;;;;;;22.24;46.87;98168.19;5018300;28;20176;-86
2022/07/28 07:47:27;;;;;;;2.25;1.70;;;;;;;22.23;48.46;98185.31;5020069;28;20100;-88
2022/07/28 07:49:54;;;;;;;2.83;1.55;;;;;;;22.29;47.96;98173.53;5009258;28;20065;-85
2022/07/28 07:52:21;;;;;;;1.98;1.77;;;;;;;22.33;47.61;98178.06;5008119;28;20467;-87
2022/07/28 07:54:48;;;;;;;2.40;1.80;;;;;;;22.43;45.81;98161.16;5018019;28;20042;-89
2022/07/28 07:57:15;;;;;;;2.88;1.95;;;;;;;22.45;46.75;98167.06;5020929;28;20042;-86
2022/07/28 07:59:42;;;;;;;1.70;1.60;;;;;;;22.46;47.70;98163.31;5015011;28;20050;-87
2022/07/28 08:02:09;;;;;;;2.47;2.10;;;;;;;22.54;45.23;98152.03;5017691;28;20493;-87
2022/07/28 08:04:36;;;;;;;2.42;1.85;;;;;;;22.61;46.75;98160.56;4999788;28;20096;-89
2022/07/28 08:07:05;;;;;;;3.95;2.08;;;;;;;22.67;47.02;98164.81;5019057;28;20045;-87
2022/07/28 08:09:33;;;;;;;2.95;2.00;;;;;;;22.80;46.35;98174.09;5016704;28;20386;-86
2022/07/28 08:12:00;;;;;;;2.40;1.80;;;;;;;23.03;45.99;98169.97;5025386;28;20041;-89
2022/07/28 08:14:27;;;;;;;2.47;1.90;;;;;;;23.08;45.86;98164.53;5020178;28;20046;-88
2022/07/28 08:16:55;;;;;;;3.67;2.40;;;;;;;22.99;43.78;98162.75;5019922;28;20042;-88
2022/07/28 08:19:23;;;;;;;3.08;2.00;;;;;;;23.10;43.64;98173.09;5018770;28;20116;-86
2022/07/28 08:21:50;;;;;;;2.58;2.38;;;;;;;23.12;45.06;98162.91;5020916;28;20044;-86
2022/07/28 08:24:18;;;;;;;2.20;2.00;;;;;;;23.29;44.83;98169.75;5016452;28;20453;-86
2022/07/28 08:27:01;;;;;;;2.75;1.95;;;;;;;23.42;44.21;98171.78;5022469;28;20033;-85
2022/07/28 08:29:29;;;;;;;4.47;2.33;;;;;;;23.49;44.45;98165.00;5018347;28;20128;-87
2022/07/28 08:31:56;;;;;;;4.57;2.50;;;;;;;23.50;43.68;98176.50;5020239;28;20077;-88
2022/07/28 08:34:24;;;;;;;1.77;1.65;;;;;;;23.68;43.61;98175.84;5019085;28;20084;-87
2022/07/28 08:37:03;;;;;;;2.83;2.17;;;;;;;23.75;43.28;98162.94;5013280;28;20058;-88
2022/07/28 08:39:32;;;;;;;2.33;1.90;;;;;;;23.94;43.99;98170.25;5021441;28;20042;-87
2022/07/28 08:42:42;;;;;;;2.40;2.05;;;;;;;23.88;45.24;98179.41;5018721;28;20088;-87
2022/07/28 08:45:10;;;;;;;3.63;1.92;;;;;;;23.91;43.47;98176.16;5013094;28;20053;-86
2022/07/28 08:47:41;;;;;;;2.23;1.90;;;;;;;24.02;44.42;98166.94;5015841;28;20046;-87
2022/07/28 08:50:30;;;;;;;2.92;1.80;;;;;;;24.24;43.81;98167.22;5030389;28;20438;-88
2022/07/28 08:52:58;;;;;;;2.60;2.40;;;;;;;24.33;42.38;98158.53;5022482;28;20569;-90
2022/07/28 08:55:27;;;;;;;3.10;2.00;;;;;;;24.36;41.26;98161.47;5014688;28;20125;-89
2022/07/28 08:57:59;;;;;;;2.00;1.80;;;;;;;24.47;42.71;98168.31;5022944;28;20068;-86
2022/07/28 09:00:26;;;;;;;2.80;2.20;;;;;;;24.38;40.91;98161.97;5014881;28;20565;-89
2022/07/28 09:02:54;;;;;;;2.55;1.90;;;;;;;24.41;42.94;98156.06;5020332;28;20278;-89
2022/07/28 09:05:23;;;;;;;2.03;1.80;;;;;;;24.43;41.38;98161.13;5023556;28;20064;-86
2022/07/28 09:07:53;;;;;;;3.50;2.22;;;;;;;24.66;42.25;98152.22;5017623;28;20128;-87
2022/07/28 09:10:22;;;;;;;2.10;1.90;;;;;;;24.75;42.29;98161.19;5019455;28;20124;-87
2022/07/28 09:12:50;;;;;;;2.50;2.30;;;;;;;24.77;42.53;98167.09;5026476;28;20046;-88
2022/07/28 09:15:17;;;;;;;2.58;1.90;;;;;;;24.87;41.62;98159.97;5037812;28;20541;-86
2022/07/28 09:17:44;;;;;;;1.98;1.80;;;;;;;24.96;41.29;98155.56;5019777;28;20104;-90
2022/07/28 09:20:12;;;;;;;3.45;1.90;;;;;;;25.14;41.11;98157.44;5025981;28;20045;-88
2022/07/28 09:23:01;;;;;;;2.00;1.80;;;;;;;25.28;39.71;98162.84;5016982;28;20052;-88
2022/07/28 09:25:30;;;;;;;3.45;1.80;;;;;;;25.28;40.60;98154.78;5023727;28;20037;-85
2022/07/28 09:28:15;;;;;;;2.90;2.40;;;;;;;25.17;39.76;98143.41;5023962;28;20126;-86
2022/07/28 09:30:48;;;;;;;2.40;1.85;;;;;;;25.47;40.84;98144.00;5020989;28;20048;-85
2022/07/28 09:33:24;;;;;;;3.75;2.10;;;;;;;25.48;38.78;98135.63;5024209;28;20050;-86
2022/07/28 09:36:15;;;;;;;3.13;1.75;;;;;;;25.64;39.47;98141.53;5022009;28;20046;-86
2022/07/28 09:38:43;;;;;;;4.00;2.20;;;;;;;25.63;37.94;98135.38;5026806;28;20076;-88
2022/07/28 09:41:11;;;;;;;2.20;2.00;;;;;;;25.60;38.17;98132.47;5019021;28;20497;-88
2022/07/28 09:43:44;;;;;;;3.90;2.05;;;;;;;25.65;39.21;98129.72;5017125;28;20358;-90
2022/07/28 09:46:17;;;;;;;3.45;2.33;;;;;;;25.62;37.24;98115.00;5022410;28;20065;-88
2022/07/28 09:48:58;;;;;;;5.20;2.40;;;;;;;25.61;37.57;98131.41;5022994;28;20053;-89
2022/07/28 09:51:32;;;;;;;2.47;2.00;;;;;;;25.70;37.16;98132.31;5018470;28;20052;-86
2022/07/28 09:54:12;;;;;;;2.55;1.80;;;;;;;25.76;37.19;98128.47;5035672;28;20049;-88
2022/07/28 09:56:43;;;;;;;2.78;2.00;;;;;;;25.76;37.52;98124.97;5025933;28;20100;-91
2022/07/28 09:59:12;;;;;;;2.95;1.80;;;;;;;25.77;37.70;98118.50;5017434;28;20101;-86
2022/07/28 10:01:57;;;;;;;4.20;2.15;;;;;;;25.94;37.47;98125.97;5021257;28;20076;-86
2022/07/28 10:04:40;;;;;;;2.03;1.80;;;;;;;26.05;37.83;98113.94;5022054;28;20046;-86
2022/07/28 10:07:14;;;;;;;3.05;2.05;;;;;;;26.02;36.95;98117.22;5021650;28;20042;-87
2022/07/28 10:09:42;;;;;;;2.58;2.08;;;;;;;26.14;36.44;98120.19;5022240;28;20037;-86
2022/07/28 10:12:21;;;;;;;3.83;2.10;;;;;;;26.18;36.74;98107.75;5026410;28;20061;-89
2022/07/28 10:14:51;;;;;;;2.88;1.88;;;;;;;26.25;36.69;98115.41;5021599;28;20056;-90
2022/07/28 10:17:32;;;;;;;2.13;1.90;;;;;;;26.27;37.12;98116.72;5019333;28;20046;-89
2022/07/28 10:20:06;;;;;;;1.70;1.60;;;;;;;26.31;35.79;98103.44;5020342;28;20291;-87
2022/07/28 10:22:37;;;;;;;3.20;1.88;;;;;;;26.27;35.93;98097.06;5024667;28;20451;-87
2022/07/28 10:25:13;;;;;;;1.98;1.30;;;;;;;26.33;35.82;98107.44;5024772;28;20033;-86
2022/07/28 10:27:42;;;;;;;2.22;1.67;;;;;;;26.42;37.43;98111.00;5024998;28;20050;-87
2022/07/28 10:30:11;;;;;;;2.17;1.50;;;;;;;26.34;35.86;98097.47;5015492;28;20053;-89
2022/07/28 10:32:43;;;;;;;2.20;1.63;;;;;;;26.42;35.61;98094.88;5025786;28;20046;-88
2022/07/28 10:35:16;;;;;;;2.60;1.83;;;;;;;26.52;34.99;98093.06;5019008;28;20490;-88
2022/07/28 10:37:51;;;;;;;3.42;2.22;;;;;;;26.46;34.18;98088.91;5026851;28;20041;-90
2022/07/28 10:40:25;;;;;;;4.30;2.45;;;;;;;26.55;35.80;98092.47;5028279;28;20054;-88
2022/07/28 10:42:54;;;;;;;2.15;1.40;;;;;;;26.68;36.39;98097.00;5020130;28;20498;-87
2022/07/28 10:45:22;;;;;;;3.72;1.98;;;;;;;26.74;35.84;98090.38;5017255;28;20489;-88
2022/07/28 10:47:59;;;;;;;3.05;1.85;;;;;;;26.75;35.67;98085.81;5019707;28;20095;-88
2022/07/28 10:50:26;;;;;;;1.98;1.60;;;;;;;26.85;36.08;98083.66;5016164;28;20045;-87
2022/07/28 10:52:55;;;;;;;1.92;1.40;;;;;;;27.12;35.92;98080.09;5011221;28;20510;-87
2022/07/28 10:55:51;;;;;;;2.50;2.10;;;;;;;27.13;34.06;98087.06;5022442;28;20046;-85
2022/07/28 10:59:02;;;;;;;3.22;2.15;;;;;;;27.12;32.67;98080.09;5002759;28;20095;-87
2022/07/28 11:01:35;;;;;;;3.55;2.00;;;;;;;26.94;34.10;98079.16;5020676;28;20049;-90
2022/07/28 11:04:46;;;;;;;2.30;2.00;;;;;;;27.08;35.24;98079.09;5025123;28;20049;-90
2022/07/28 11:07:16;;;;;;;2.00;1.80;;;;;;;27.08;34.27;98065.66;5014741;28;20049;-91
2022/07/28 11:09:46;;;;;;;2.15;1.65;;;;;;;27.35;34.41;98066.56;5019167;28;20050;-89
2022/07/28 11:12:16;;;;;;;;;;;;;;;27.52;35.04;98071.25;5022878;28;20136;-89
2022/07/28 11:14:43;;;;;;;3.60;2.13;;;;;;;27.67;33.67;98073.53;5021282;28;19928;-90
2022/07/28 11:17:16;;;;;;;2.47;2.28;;;;;;;27.60;34.26;98063.22;5018995;28;20164;-90
2022/07/28 11:19:54;;;;;;;2.10;1.90;;;;;;;27.68;33.30;98056.25;5021762;28;20518;-88
2022/07/28 11:22:41;;;;;;;2.78;1.80;;;;;;;27.63;33.51;98067.16;5036462;28;20045;-88
2022/07/28 11:25:10;;;;;;;2.35;2.15;;;;;;;27.76;34.04;98068.19;5006244;28;20057;-86
2022/07/28 11:27:49;;;;;;;3.60;2.63;;;;;;;27.75;33.18;98051.22;5024597;28;20029;-89
2022/07/28 11:30:18;;;;;;;2.15;1.95;;;;;;;27.70;33.17;98051.38;5011117;28;20045;-91
2022/07/28 11:32:54;;;;;;;2.15;1.83;;;;;;;27.74;33.74;98046.94;5017911;28;20088;-86
2022/07/28 11:35:23;;;;;;;2.58;2.00;;;;;;;27.79;33.64;98037.94;5003872;28;20044;-90
2022/07/28 11:37:59;;;;;;;3.28;2.22;;;;;;;28.15;34.20;98040.38;5018111;28;20038;-90
2022/07/28 11:40:48;;;;;;;2.17;1.98;;;;;;;28.16;34.50;98031.97;5017748;28;20124;-89
2022/07/28 11:43:28;;;;;;;1.83;1.73;;;;;;;28.29;32.32;98043.72;5007695;28;20042;-88
2022/07/28 11:46:03;;;;;;;2.55;2.00;;;;;;;28.38;32.05;98044.56;5015080;28;20409;-91
2022/07/28 11:48:39;;;;;;;3.65;2.80;;;;;;;27.94;30.69;98035.56;5016356;28;20457;-88
2022/07/28 11:51:11;;;;;;;3.05;2.00;;;;;;;28.04;33.05;98033.69;5019642;28;20077;-88
2022/07/28 11:53:47;;;;;;;2.67;2.28;;;;;;;27.99;31.92;98032.72;5019146;28;20050;-87
2022/07/28 11:56:23;;;;;;;3.25;2.10;;;;;;;28.16;31.79;98036.56;5017350;28;20101;-87